Time;durP1;ratioP1;P1;durP2;ratioP2;P2;SDS_P1;SDS_P2;PMS_P1;PMS_P2;Temp;Humidity;BMP_temperature;BMP_pressure;BME280_temperature;BME280_humidity;BME280_pressure;Samples;Min_cycle;Max_cycle;Signal;HPM_P1;HPM_P2
2024/02/16 00:01:07;;;;;;;6.00;2.77;;;12.20;1.00;;;;;;5073780;28;20945;-61
2024/02/16 00:03:35;;;;;;;3.27;2.80;;;12.20;1.00;;;;;;5074906;28;20464;-60
2024/02/16 00:06:02;;;;;;;6.40;2.70;;;12.20;1.00;;;;;;5074878;28;20521;-61
2024/02/16 00:08:30;;;;;;;3.63;2.80;;;12.30;1.00;;;;;;5075086;28;20461;-60
2024/02/16 00:10:58;;;;;;;5.20;2.90;;;12.30;1.00;;;;;;5074639;28;20874;-60
2024/02/16 00:13:25;;;;;;;4.17;2.60;;;12.30;1.00;;;;;;5074583;28;20501;-61
2024/02/16 00:15:54;;;;;;;4.53;3.40;;;12.30;1.00;;;;;;5074739;27;20453;-60
2024/02/16 00:18:22;;;;;;;5.30;3.20;;;12.40;10.90;;;;;;5074910;28;20521;-60
2024/02/16 00:20:51;;;;;;;2.83;2.20;;;12.40;1.00;;;;;;5074020;28;20496;-61
2024/02/16 00:23:22;;;;;;;4.83;2.90;;;12.40;1.00;;;;;;5074292;28;20461;-60
2024/02/16 00:25:49;;;;;;;4.27;2.60;;;12.40;1.00;;;;;;5074596;28;20465;-61
2024/02/16 00:28:17;;;;;;;5.10;3.33;;;12.40;1.00;;;;;;5074292;28;20453;-61
2024/02/16 00:30:46;;;;;;;3.20;2.20;;;12.30;99.90;;;;;;5074142;28;20479;-60
2024/02/16 00:33:17;;;;;;;6.63;2.97;;;12.40;94.60;;;;;;5074050;28;20505;-61
2024/02/16 00:35:47;;;;;;;5.23;2.73;;;12.40;99.90;;;;;;5074129;28;20501;-61
2024/02/16 00:38:15;;;;;;;4.00;2.60;;;12.40;99.90;;;;;;5074170;28;20885;-61
2024/02/16 00:40:44;;;;;;;6.30;3.00;;;12.40;99.90;;;;;;5074072;28;20933;-60
2024/02/16 00:43:11;;;;;;;5.30;3.20;;;12.40;99.90;;;;;;5074116;28;20465;-60
2024/02/16 00:45:41;;;;;;;3.97;2.67;;;12.30;99.90;;;;;;5074267;28;20560;-61
2024/02/16 00:48:08;;;;;;;6.23;2.77;;;12.40;99.90;;;;;;5074382;28;20461;-61
2024/02/16 00:50:37;;;;;;;6.37;2.90;;;12.30;1.00;;;;;;5073539;28;20454;-61
2024/02/16 00:53:06;;;;;;;5.00;2.57;;;12.30;1.00;;;;;;5073933;28;20564;-61
2024/02/16 00:55:33;;;;;;;4.87;2.30;;;12.30;1.00;;;;;;5074486;28;20457;-61
2024/02/16 00:58:01;;;;;;;5.07;2.50;;;12.30;99.90;;;;;;5074322;28;20743;-61
2024/02/16 01:00:28;;;;;;;4.53;2.63;;;12.30;99.90;;;;;;5074011;28;20831;-60
2024/02/16 01:02:55;;;;;;;3.20;2.40;;;12.40;99.90;;;;;;5073634;28;20505;-61
2024/02/16 01:05:23;;;;;;;3.77;2.27;;;12.30;99.90;;;;;;5073445;28;20514;-61
2024/02/16 01:07:52;;;;;;;4.13;2.53;;;12.30;99.90;;;;;;5073677;28;20468;-60
2024/02/16 01:10:19;;;;;;;3.53;2.80;;;12.40;1.00;;;;;;5074106;28;20485;-61
2024/02/16 01:12:47;;;;;;;7.13;2.73;;;12.40;1.00;;;;;;5077570;28;20938;-60
2024/02/16 01:15:14;;;;;;;3.43;2.40;;;12.40;1.00;;;;;;5077479;28;20461;-61
2024/02/16 01:17:42;;;;;;;7.27;2.77;;;12.40;3.70;;;;;;5077708;28;20949;-60
2024/02/16 01:20:12;;;;;;;6.33;2.90;;;12.40;99.90;;;;;;5077522;28;20542;-61
2024/02/16 01:22:40;;;;;;;5.83;2.60;;;12.40;1.00;;;;;;5077073;27;20467;-61
2024/02/16 01:25:09;;;;;;;3.70;2.77;;;12.40;1.00;;;;;;5077022;27;20453;-61
2024/02/16 01:27:37;;;;;;;7.10;2.77;;;12.40;99.90;;;;;;5077294;28;20823;-61
2024/02/16 01:30:05;;;;;;;5.30;2.87;;;12.30;1.00;;;;;;5076793;28;20898;-61
2024/02/16 01:32:34;;;;;;;3.90;2.27;;;12.30;1.00;;;;;;5077506;28;20467;-61
2024/02/16 01:35:02;;;;;;;4.70;2.80;;;12.30;1.00;;;;;;5077224;28;20752;-61
2024/02/16 01:37:29;;;;;;;5.70;3.30;;;12.30;1.00;;;;;;5077191;28;20525;-61
2024/02/16 01:39:56;;;;;;;4.80;2.80;;;12.20;99.90;;;;;;5076883;28;20513;-61
2024/02/16 01:42:25;;;;;;;4.00;2.50;;;12.20;1.00;;;;;;5077254;28;20510;-61
2024/02/16 01:44:53;;;;;;;5.07;2.53;;;12.20;1.00;;;;;;5077043;27;20453;-61
2024/02/16 01:47:20;;;;;;;3.77;3.37;;;12.20;1.00;;;;;;5077109;28;20509;-60
2024/02/16 01:49:47;;;;;;;4.50;2.90;;;12.20;1.00;;;;;;5077086;28;20509;-61
2024/02/16 01:52:15;;;;;;;4.30;3.13;;;12.20;1.00;;;;;;5076907;28;20461;-61
2024/02/16 01:54:42;;;;;;;4.50;2.80;;;12.20;1.00;;;;;;5076382;28;20495;-61
2024/02/16 01:57:10;;;;;;;5.20;2.40;;;12.30;1.00;;;;;;5076636;28;20934;-61
2024/02/16 01:59:40;;;;;;;4.80;3.00;;;12.30;1.00;;;;;;5076773;28;20461;-61
2024/02/16 02:02:08;;;;;;;4.60;3.10;;;12.30;99.90;;;;;;5076715;28;20493;-61
2024/02/16 02:04:35;;;;;;;3.90;2.57;;;12.30;1.00;;;;;;5076551;28;20481;-61
2024/02/16 02:07:13;;;;;;;3.40;2.77;;;12.30;99.90;;;;;;5076610;28;20492;-61
2024/02/16 02:09:40;;;;;;;5.90;3.00;;;12.30;99.90;;;;;;5076754;28;20461;-61
2024/02/16 02:12:09;;;;;;;3.50;2.40;;;12.30;1.00;;;;;;5076905;27;20454;-61
2024/02/16 02:14:36;;;;;;;4.10;3.00;;;12.30;1.00;;;;;;5076037;27;20467;-61
2024/02/16 02:17:05;;;;;;;4.60;2.20;;;12.40;1.00;;;;;;5076314;28;20552;-61
2024/02/16 02:19:32;;;;;;;3.80;2.80;;;12.30;1.00;;;;;;5076628;27;20461;-62
2024/02/16 02:22:00;;;;;;;6.50;3.90;;;12.30;1.00;;;;;;5075889;28;20494;-61
2024/02/16 02:24:29;;;;;;;7.73;2.87;;;12.30;1.00;;;;;;5076250;28;20461;-61
2024/02/16 02:26:57;;;;;;;4.40;2.73;;;12.30;1.00;;;;;;5076274;28;20453;-61
2024/02/16 02:29:24;;;;;;;7.00;3.23;;;12.30;1.00;;;;;;5076470;28;20466;-61
2024/02/16 02:31:51;;;;;;;3.77;2.73;;;12.40;99.90;;;;;;5076442;28;20506;-61
2024/02/16 02:34:20;;;;;;;4.90;3.20;;;12.30;99.90;;;;;;5075944;28;20509;-61
2024/02/16 02:36:47;;;;;;;6.70;3.33;;;12.40;1.00;;;;;;5075769;28;20494;-61
2024/02/16 02:39:14;;;;;;;5.83;2.80;;;12.40;1.00;;;;;;5075885;28;20848;-61
2024/02/16 02:41:43;;;;;;;3.50;2.37;;;12.40;1.00;;;;;;5076397;28;20493;-61
2024/02/16 02:44:10;;;;;;;4.90;2.97;;;12.50;1.00;;;;;;5076077;28;20950;-61
2024/02/16 02:46:38;;;;;;;4.07;2.80;;;12.50;1.00;;;;;;5075805;27;20457;-61
2024/02/16 02:49:05;;;;;;;4.50;2.60;;;12.50;1.00;;;;;;5075560;28;20822;-61
2024/02/16 02:51:32;;;;;;;3.87;2.80;;;12.40;1.00;;;;;;5075752;28;20548;-61
2024/02/16 02:54:00;;;;;;;4.23;2.87;;;12.50;1.00;;;;;;5075402;28;20929;-60
2024/02/16 02:56:27;;;;;;;5.00;3.17;;;12.50;1.00;;;;;;5076144;28;20461;-61
2024/02/16 02:58:56;;;;;;;4.90;2.77;;;12.50;1.00;;;;;;5075666;28;20490;-61
2024/02/16 03:01:23;;;;;;;5.47;2.80;;;12.40;1.00;;;;;;5075074;28;20494;-62
2024/02/16 03:03:50;;;;;;;4.77;2.67;;;12.40;1.00;;;;;;5075669;27;20500;-61
2024/02/16 03:06:19;;;;;;;5.23;3.20;;;12.40;1.00;;;;;;5075725;27;20458;-61
2024/02/16 03:08:47;;;;;;;6.10;3.00;;;12.50;1.00;;;;;;5075559;28;20506;-61
2024/02/16 03:11:14;;;;;;;4.00;2.73;;;12.40;1.00;;;;;;5075577;28;20502;-61
2024/02/16 03:13:41;;;;;;;4.63;3.13;;;12.40;1.00;;;;;;5075798;28;20462;-61
2024/02/16 03:16:10;;;;;;;3.97;2.40;;;12.50;1.00;;;;;;5075413;28;20457;-61
2024/02/16 03:18:37;;;;;;;7.27;2.60;;;12.40;1.00;;;;;;5074995;28;20458;-61
2024/02/16 03:21:05;;;;;;;5.23;2.60;;;12.40;1.00;;;;;;5075198;27;20492;-61
2024/02/16 03:23:32;;;;;;;3.77;2.73;;;12.40;26.50;;;;;;5075422;28;20510;-60
2024/02/16 03:25:59;;;;;;;3.00;2.43;;;12.40;1.00;;;;;;5075343;28;20517;-60
2024/02/16 03:28:27;;;;;;;4.60;2.80;;;12.40;1.00;;;;;;5075457;28;20820;-61
2024/02/16 03:30:54;;;;;;;2.90;2.10;;;12.40;1.00;;;;;;5075191;28;20549;-61
2024/02/16 03:33:23;;;;;;;4.70;2.73;;;12.40;99.90;;;;;;5075325;28;20533;-61
2024/02/16 03:35:50;;;;;;;3.80;2.70;;;12.40;1.00;;;;;;5074661;28;20548;-61
2024/02/16 03:38:18;;;;;;;3.73;3.00;;;12.40;1.00;;;;;;5075221;28;20870;-61
2024/02/16 03:40:45;;;;;;;4.20;2.87;;;12.40;1.00;;;;;;5074948;27;20489;-61
2024/02/16 03:43:12;;;;;;;4.30;3.00;;;12.40;1.00;;;;;;5074828;28;20457;-61
2024/02/16 03:45:40;;;;;;;5.40;3.00;;;12.40;1.00;;;;;;5075092;28;20544;-61
2024/02/16 03:48:08;;;;;;;5.60;2.50;;;12.40;1.00;;;;;;5074498;28;20468;-61
2024/02/16 03:50:37;;;;;;;4.70;2.60;;;12.40;1.00;;;;;;5074373;28;20504;-60
2024/02/16 03:53:05;;;;;;;6.80;2.93;;;12.30;1.00;;;;;;5074124;28;20488;-61
2024/02/16 03:55:36;;;;;;;4.37;2.53;;;12.30;1.00;;;;;;5074591;28;20460;-61
2024/02/16 03:58:03;;;;;;;3.63;2.60;;;12.40;1.00;;;;;;5074874;28;20465;-61
2024/02/16 04:00:32;;;;;;;3.77;2.27;;;12.30;1.00;;;;;;5074127;27;20457;-61
2024/02/16 04:02:59;;;;;;;4.67;2.73;;;12.30;1.00;;;;;;5073382;28;20472;-61
2024/02/16 04:05:30;;;;;;;4.00;2.90;;;12.20;1.00;;;;;;5074790;28;20754;-61
2024/02/16 04:08:01;;;;;;;4.80;2.20;;;12.20;68.00;;;;;;5074814;28;20516;-61
2024/02/16 04:10:29;;;;;;;5.07;2.60;;;12.30;1.00;;;;;;5074900;28;20487;-61
2024/02/16 04:12:56;;;;;;;3.23;2.53;;;12.20;1.00;;;;;;5074525;28;20556;-61
2024/02/16 04:15:24;;;;;;;3.80;3.03;;;12.20;1.00;;;;;;5074549;28;20741;-61
2024/02/16 04:17:51;;;;;;;4.93;3.10;;;12.30;1.00;;;;;;5073785;28;20507;-61
2024/02/16 04:20:18;;;;;;;4.40;2.90;;;12.20;1.00;;;;;;5073347;28;20462;-62
2024/02/16 04:22:46;;;;;;;5.37;2.67;;;12.20;1.00;;;;;;5072411;28;20592;-62
2024/02/16 04:25:14;;;;;;;4.17;2.73;;;12.30;1.00;;;;;;5073091;28;20484;-61
2024/02/16 04:27:41;;;;;;;4.20;2.93;;;12.30;1.00;;;;;;5073081;28;20500;-61
2024/02/16 04:30:09;;;;;;;4.60;3.23;;;12.30;90.50;;;;;;5055440;28;20490;-62
2024/02/16 04:32:37;;;;;;;3.67;2.80;;;12.30;99.90;;;;;;5053131;28;20486;-60
2024/02/16 04:35:05;;;;;;;5.67;3.20;;;12.30;99.90;;;;;;5054613;28;20716;-61
2024/02/16 04:37:32;;;;;;;4.37;3.20;;;12.40;99.90;;;;;;5054246;28;20458;-61
2024/02/16 04:39:59;;;;;;;4.33;2.83;;;12.30;99.90;;;;;;5054523;28;20501;-60
2024/02/16 04:42:28;;;;;;;6.77;2.57;;;12.30;1.00;;;;;;5054239;28;20489;-61
2024/02/16 04:44:55;;;;;;;4.70;2.30;;;12.30;41.00;;;;;;5053754;28;20894;-61
2024/02/16 04:47:22;;;;;;;4.30;2.50;;;12.30;99.90;;;;;;5053878;28;20604;-61
2024/02/16 04:49:49;;;;;;;4.57;3.17;;;12.30;99.90;;;;;;5054082;28;20552;-61
2024/02/16 04:52:17;;;;;;;3.50;2.83;;;12.30;99.90;;;;;;5053783;28;20454;-60
2024/02/16 04:54:44;;;;;;;4.30;2.80;;;12.30;99.90;;;;;;5053615;28;20496;-61
2024/02/16 04:57:11;;;;;;;4.50;3.30;;;12.30;99.90;;;;;;5053790;28;20531;-61
2024/02/16 04:59:40;;;;;;;5.70;3.30;;;12.30;99.90;;;;;;5054085;28;20895;-61
2024/02/16 05:02:07;;;;;;;6.03;2.77;;;12.20;99.90;;;;;;5054105;28;20824;-61
2024/02/16 05:04:34;;;;;;;3.57;2.97;;;12.20;99.90;;;;;;5053676;28;20454;-61
2024/02/16 05:07:02;;;;;;;3.63;2.80;;;12.20;1.00;;;;;;5054502;28;20537;-61
2024/02/16 05:09:29;;;;;;;5.53;3.57;;;12.20;99.90;;;;;;5053407;28;20463;-61
2024/02/16 05:11:56;;;;;;;3.60;3.20;;;12.20;1.00;;;;;;5054131;28;20454;-61
2024/02/16 05:14:23;;;;;;;6.13;3.50;;;12.10;1.00;;;;;;5054195;28;20934;-61
2024/02/16 05:16:52;;;;;;;4.73;3.10;;;12.10;1.00;;;;;;5053916;28;20505;-62
2024/02/16 05:19:20;;;;;;;6.67;3.40;;;12.10;1.00;;;;;;5053563;28;20514;-61
2024/02/16 05:21:48;;;;;;;4.37;3.20;;;12.00;99.90;;;;;;5053641;28;20489;-61
2024/02/16 05:24:15;;;;;;;7.40;3.67;;;12.00;1.00;;;;;;5052868;28;20477;-61
2024/02/16 05:26:42;;;;;;;5.33;2.97;;;12.00;1.00;;;;;;5053690;28;20458;-61
2024/02/16 05:29:10;;;;;;;4.60;3.23;;;12.00;69.20;;;;;;5053583;28;20511;-61
2024/02/16 05:31:37;;;;;;;5.43;3.30;;;12.10;99.90;;;;;;5053455;28;20481;-61
2024/02/16 05:34:06;;;;;;;4.70;2.87;;;12.10;1.00;;;;;;5053707;28;20515;-61
2024/02/16 05:36:35;;;;;;;5.73;2.70;;;12.10;99.90;;;;;;5053278;28;20871;-61
2024/02/16 05:39:19;;;;;;;4.20;3.10;;;12.20;1.00;;;;;;5053674;28;20462;-61
2024/02/16 05:41:47;;;;;;;6.73;3.60;;;12.20;99.90;;;;;;5053703;28;20490;-61
2024/02/16 05:44:14;;;;;;;5.23;3.20;;;12.20;99.90;;;;;;5053299;28;20491;-62
2024/02/16 05:46:41;;;;;;;6.00;3.07;;;12.20;99.90;;;;;;5053358;28;20460;-61
2024/02/16 05:49:10;;;;;;;3.80;2.73;;;12.30;1.00;;;;;;5053193;28;20507;-61
2024/02/16 05:51:39;;;;;;;5.23;3.37;;;12.30;99.90;;;;;;5049454;28;20824;-61
2024/02/16 05:54:07;;;;;;;6.77;3.70;;;12.30;99.90;;;;;;5052032;28;20493;-61
2024/02/16 05:56:36;;;;;;;7.53;3.17;;;12.30;1.00;;;;;;5051257;28;20557;-61
2024/02/16 05:59:05;;;;;;;5.50;3.23;;;12.30;1.00;;;;;;5054768;28;20519;-61
2024/02/16 06:01:32;;;;;;;4.93;3.40;;;12.30;1.00;;;;;;5054899;28;20494;-61
2024/02/16 06:04:00;;;;;;;5.60;3.27;;;12.30;99.90;;;;;;5056169;28;20462;-62
2024/02/16 06:06:29;;;;;;;5.17;2.60;;;12.30;1.00;;;;;;5056432;28;20505;-61
2024/02/16 06:08:56;;;;;;;5.70;3.40;;;12.30;99.90;;;;;;5055932;28;20454;-61
2024/02/16 06:11:23;;;;;;;4.03;2.87;;;12.30;41.80;;;;;;5056265;28;20466;-61
2024/02/16 06:13:50;;;;;;;5.60;3.37;;;12.20;99.90;;;;;;5056504;28;20466;-62
2024/02/16 06:16:18;;;;;;;4.50;3.17;;;12.20;99.90;;;;;;5056422;28;20890;-62
2024/02/16 06:18:45;;;;;;;6.10;3.20;;;12.20;8.00;;;;;;5055798;28;20816;-62
2024/02/16 06:21:13;;;;;;;5.70;3.13;;;12.30;99.90;;;;;;5056073;28;20487;-61
2024/02/16 06:23:41;;;;;;;5.90;3.97;;;12.30;13.20;;;;;;5055862;28;20950;-61
2024/02/16 06:26:09;;;;;;;6.00;3.67;;;12.30;1.00;;;;;;5056705;28;20494;-62
2024/02/16 06:28:36;;;;;;;6.07;3.70;;;12.30;1.00;;;;;;5055566;28;20498;-61
2024/02/16 06:31:04;;;;;;;6.40;3.80;;;12.20;1.00;;;;;;5056345;28;20485;-61
2024/02/16 06:33:31;;;;;;;7.00;3.30;;;12.20;1.00;;;;;;5054677;28;20461;-62
2024/02/16 06:35:59;;;;;;;4.77;3.40;;;12.20;1.00;;;;;;5053688;28;20470;-62
2024/02/16 06:38:26;;;;;;;5.53;3.43;;;12.20;1.00;;;;;;5054913;28;20970;-62
2024/02/16 06:40:55;;;;;;;5.83;3.43;;;12.20;1.00;;;;;;5054187;28;20511;-63
2024/02/16 06:43:22;;;;;;;5.37;3.20;;;12.20;1.00;;;;;;5053983;28;20494;-62
2024/02/16 06:45:50;;;;;;;8.27;3.20;;;12.10;1.00;;;;;;5054443;28;20498;-63
2024/02/16 06:48:17;;;;;;;5.53;3.30;;;12.10;99.90;;;;;;5055421;28;20809;-63
2024/02/16 06:50:44;;;;;;;5.87;3.83;;;12.00;99.90;;;;;;5055867;28;20792;-62
2024/02/16 06:53:11;;;;;;;4.00;3.00;;;12.10;99.90;;;;;;5055351;28;20531;-62
2024/02/16 06:55:39;;;;;;;6.00;3.40;;;12.10;99.90;;;;;;5056004;28;20505;-62
2024/02/16 06:58:08;;;;;;;7.83;3.70;;;12.10;99.90;;;;;;5055714;28;20494;-63
2024/02/16 07:00:35;;;;;;;4.83;2.97;;;12.10;99.90;;;;;;5055476;28;20515;-63
2024/02/16 07:03:02;;;;;;;6.40;3.50;;;12.10;99.90;;;;;;5055390;28;20566;-62
2024/02/16 07:05:31;;;;;;;5.83;3.70;;;12.10;99.90;;;;;;5055097;28;20498;-62
2024/02/16 07:07:58;;;;;;;6.13;3.53;;;12.10;99.90;;;;;;5055140;28;20461;-62
2024/02/16 07:10:26;;;;;;;5.20;3.33;;;12.10;99.90;;;;;;5056009;28;20469;-62
2024/02/16 07:12:53;;;;;;;5.77;3.70;;;12.10;99.90;;;;;;5055589;28;20526;-62
2024/02/16 07:15:22;;;;;;;6.30;3.87;;;12.10;99.90;;;;;;5055457;28;20458;-62
2024/02/16 07:17:51;;;;;;;6.37;3.80;;;12.10;99.90;;;;;;5056164;28;20458;-62
2024/02/16 07:20:19;;;;;;;6.10;3.50;;;12.10;99.90;;;;;;5056053;28;20462;-62
2024/02/16 07:22:46;;;;;;;6.13;3.40;;;12.10;99.90;;;;;;5055648;28;20970;-62
2024/02/16 07:25:14;;;;;;;7.07;3.87;;;12.10;99.90;;;;;;5055488;28;20531;-62
2024/02/16 07:27:41;;;;;;;5.77;3.90;;;12.00;1.00;;;;;;5055309;28;20462;-62
2024/02/16 07:30:11;;;;;;;6.10;3.40;;;12.00;99.90;;;;;;5055807;28;20459;-63
2024/02/16 07:32:40;;;;;;;5.13;3.63;;;12.10;99.90;;;;;;5054987;28;20459;-62
2024/02/16 07:35:10;;;;;;;5.57;3.93;;;12.20;1.00;;;;;;5055263;28;20458;-62
2024/02/16 07:37:37;;;;;;;5.47;3.80;;;12.20;99.90;;;;;;5055436;28;20473;-62
2024/02/16 07:40:09;;;;;;;10.07;3.73;;;12.20;1.00;;;;;;5055500;28;20465;-62
2024/02/16 07:42:39;;;;;;;4.97;3.47;;;12.30;1.00;;;;;;5054009;28;20498;-62
2024/02/16 07:45:07;;;;;;;6.10;4.07;;;12.30;1.00;;;;;;5054480;28;20464;-63
2024/02/16 07:47:35;;;;;;;7.20;3.63;;;12.40;1.00;;;;;;5054809;28;20462;-63
2024/02/16 07:50:06;;;;;;;11.47;3.43;;;12.40;1.00;;;;;;5055361;28;20463;-62
2024/02/16 07:52:33;;;;;;;5.57;3.40;;;12.50;99.90;;;;;;5064875;27;20479;-62
2024/02/16 07:55:01;;;;;;;6.60;3.70;;;12.50;1.00;;;;;;5089575;27;20502;-62
2024/02/16 07:57:28;;;;;;;10.17;4.63;;;12.60;99.90;;;;;;5160025;27;20784;-62
2024/02/16 07:59:56;;;;;;;5.23;3.80;;;12.60;1.00;;;;;;5121715;27;20467;-62
2024/02/16 08:02:23;;;;;;;4.10;3.40;;;12.60;1.00;;;;;;5034926;28;20491;-62
2024/02/16 08:04:51;;;;;;;5.73;3.70;;;12.70;99.90;;;;;;5034754;28;20786;-62
2024/02/16 08:07:20;;;;;;;5.10;3.30;;;12.80;1.00;;;;;;5035229;28;20550;-62
2024/02/16 08:09:47;;;;;;;6.17;3.60;;;12.80;1.00;;;;;;5035014;28;20473;-62
2024/02/16 08:12:15;;;;;;;6.93;3.47;;;12.90;1.00;;;;;;5034631;28;20455;-63
2024/02/16 08:14:43;;;;;;;5.47;3.77;;;13.00;1.00;;;;;;5033899;28;20463;-62
2024/02/16 08:17:11;;;;;;;4.20;3.20;;;13.00;99.90;;;;;;5039505;28;20463;-62
2024/02/16 08:19:39;;;;;;;4.57;3.10;;;13.00;99.90;;;;;;5054098;28;20454;-63
2024/02/16 08:22:10;;;;;;;7.33;3.50;;;13.10;99.90;;;;;;5053087;28;21054;-63
2024/02/16 08:24:39;;;;;;;5.10;3.40;;;13.10;99.90;;;;;;5052428;28;20462;-62
2024/02/16 08:27:06;;;;;;;5.23;3.90;;;13.10;99.90;;;;;;5052773;28;20458;-62
2024/02/16 08:29:34;;;;;;;8.73;3.60;;;13.10;99.90;;;;;;5053004;28;20794;-62
2024/02/16 08:32:03;;;;;;;5.07;3.70;;;13.20;99.90;;;;;;5053241;28;20468;-63
2024/02/16 08:34:31;;;;;;;8.67;4.00;;;13.10;99.90;;;;;;5053127;28;20458;-62
2024/02/16 08:36:59;;;;;;;6.53;3.47;;;13.10;99.90;;;;;;5052709;28;20462;-62
2024/02/16 08:39:26;;;;;;;4.70;3.37;;;13.10;99.90;;;;;;5053563;28;20466;-62
2024/02/16 08:41:55;;;;;;;5.80;3.40;;;13.20;99.90;;;;;;5054623;28;20457;-62
2024/02/16 08:44:23;;;;;;;7.90;3.93;;;13.20;99.90;;;;;;5054345;28;20473;-62
2024/02/16 08:46:50;;;;;;;5.00;3.80;;;13.20;99.90;;;;;;5054669;28;20467;-62
2024/02/16 08:49:18;;;;;;;8.53;3.50;;;13.20;99.90;;;;;;5054616;28;20486;-62
2024/02/16 08:51:45;;;;;;;8.30;4.00;;;13.20;99.90;;;;;;5054281;28;20458;-62
2024/02/16 08:54:13;;;;;;;6.17;3.37;;;13.20;99.90;;;;;;5054007;28;20487;-62
2024/02/16 08:56:41;;;;;;;6.17;3.47;;;13.20;99.90;;;;;;5054841;28;20466;-62
2024/02/16 08:59:10;;;;;;;4.83;3.27;;;13.30;99.90;;;;;;5054206;28;20523;-62
2024/02/16 09:01:39;;;;;;;5.07;3.43;;;13.30;99.90;;;;;;5052401;28;20459;-62
2024/02/16 09:04:07;;;;;;;6.60;3.90;;;13.40;99.90;;;;;;5053869;28;20840;-62
2024/02/16 09:06:34;;;;;;;6.77;4.00;;;13.40;99.90;;;;;;5054560;28;20454;-62
2024/02/16 09:09:02;;;;;;;6.20;3.80;;;13.50;92.70;;;;;;5052936;28;20454;-62
2024/02/16 09:11:29;;;;;;;6.80;4.20;;;13.50;71.60;;;;;;5053533;28;20763;-62
2024/02/16 09:13:57;;;;;;;5.27;4.40;;;13.60;77.30;;;;;;5053805;28;20498;-62
2024/02/16 09:16:26;;;;;;;4.63;3.40;;;13.60;65.80;;;;;;5053156;28;20847;-62
2024/02/16 09:18:53;;;;;;;7.57;4.40;;;13.80;33.80;;;;;;5052227;28;20515;-63
2024/02/16 09:21:20;;;;;;;6.90;3.97;;;13.80;14.20;;;;;;5052481;28;20519;-62
2024/02/16 09:23:48;;;;;;;6.13;3.70;;;13.90;12.30;;;;;;5052974;28;20490;-62
2024/02/16 09:26:16;;;;;;;5.53;4.33;;;14.00;14.40;;;;;;5052799;28;20764;-62
2024/02/16 09:28:43;;;;;;;7.33;3.80;;;14.10;5.70;;;;;;5034717;28;20466;-62
2024/02/16 09:31:15;;;;;;;10.30;4.13;;;14.10;4.70;;;;;;5052498;28;20462;-63
2024/02/16 09:33:44;;;;;;;7.47;4.17;;;14.10;1.10;;;;;;5057869;28;20937;-63
2024/02/16 09:36:14;;;;;;;6.83;3.57;;;14.10;1.00;;;;;;5057643;28;20462;-62
2024/02/16 09:38:41;;;;;;;7.60;4.30;;;14.10;1.00;;;;;;5056581;28;20490;-63
2024/02/16 09:41:09;;;;;;;7.10;4.20;;;14.10;1.00;;;;;;5057326;28;20747;-63
2024/02/16 09:43:39;;;;;;;6.30;3.83;;;14.10;1.00;;;;;;5057089;28;20519;-63
2024/02/16 09:46:06;;;;;;;7.13;3.73;;;14.20;1.00;;;;;;5057738;28;20469;-62
2024/02/16 09:48:34;;;;;;;6.87;3.93;;;14.20;1.00;;;;;;5057108;28;20514;-62
2024/02/16 09:51:04;;;;;;;4.00;3.60;;;14.30;1.00;;;;;;5057096;28;20465;-63
2024/02/16 09:53:32;;;;;;;6.53;3.77;;;14.40;1.00;;;;;;5056782;28;20482;-63
2024/02/16 09:56:01;;;;;;;7.17;4.30;;;14.40;1.00;;;;;;5057799;28;20473;-63
2024/02/16 09:58:28;;;;;;;4.37;3.63;;;14.50;1.00;;;;;;5057293;28;20473;-62
2024/02/16 10:00:57;;;;;;;5.20;3.37;;;14.50;1.00;;;;;;5056762;28;20473;-63
2024/02/16 10:03:25;;;;;;;7.00;3.80;;;14.50;1.00;;;;;;5057439;28;20543;-63
2024/02/16 10:05:53;;;;;;;5.73;3.73;;;14.50;1.00;;;;;;5057265;28;20461;-63
2024/02/16 10:08:23;;;;;;;6.67;3.90;;;14.40;1.00;;;;;;5057298;28;20458;-63
2024/02/16 10:11:01;;;;;;;7.30;3.90;;;14.40;1.00;;;;;;5057001;28;20486;-63
2024/02/16 10:13:28;;;;;;;6.30;3.40;;;14.40;1.00;;;;;;5057341;28;20493;-63
2024/02/16 10:16:06;;;;;;;8.30;3.87;;;14.40;1.00;;;;;;5056999;28;20462;-63
2024/02/16 10:18:33;;;;;;;7.17;3.73;;;14.40;1.00;;;;;;5056969;28;20873;-63
2024/02/16 10:21:01;;;;;;;7.67;3.60;;;14.40;1.00;;;;;;5056993;28;20470;-63
2024/02/16 10:23:30;;;;;;;7.47;4.33;;;14.50;1.00;;;;;;5045747;28;20494;-62
2024/02/16 10:25:58;;;;;;;4.63;3.90;;;14.50;1.00;;;;;;5036979;28;20793;-63
2024/02/16 10:28:30;;;;;;;6.30;4.00;;;14.50;1.00;;;;;;5036928;28;20516;-62
2024/02/16 10:31:01;;;;;;;6.50;3.60;;;14.60;1.00;;;;;;5036986;28;20945;-63
2024/02/16 10:33:29;;;;;;;5.30;3.83;;;14.60;1.00;;;;;;5036795;28;20515;-62
2024/02/16 10:35:58;;;;;;;4.43;3.50;;;14.60;1.00;;;;;;5037603;28;20567;-63
2024/02/16 10:38:27;;;;;;;6.77;4.10;;;14.60;1.00;;;;;;5037439;28;20927;-63
2024/02/16 10:40:59;;;;;;;4.00;3.10;;;14.60;1.00;;;;;;5037266;28;20892;-62
2024/02/16 10:43:28;;;;;;;5.97;3.30;;;14.60;1.00;;;;;;5036302;28;20807;-63
2024/02/16 10:45:58;;;;;;;4.83;3.57;;;14.70;1.00;;;;;;5037650;28;20463;-63
2024/02/16 10:48:26;;;;;;;6.73;4.50;;;14.80;1.00;;;;;;5036729;28;20455;-64
2024/02/16 10:50:55;;;;;;;4.43;3.30;;;14.90;1.00;;;;;;5036666;28;20557;-63
2024/02/16 10:53:26;;;;;;;9.57;4.20;;;15.00;1.00;;;;;;5043003;28;20548;-63
2024/02/16 10:55:54;;;;;;;5.73;3.80;;;15.00;1.00;;;;;;5055353;28;20475;-63
2024/02/16 10:58:23;;;;;;;5.03;3.90;;;15.00;1.00;;;;;;5056496;28;20735;-63
2024/02/16 11:00:52;;;;;;;9.67;3.70;;;14.90;1.00;;;;;;5056595;28;20808;-63
2024/02/16 11:03:24;;;;;;;9.40;4.40;;;14.90;1.00;;;;;;5056438;28;20491;-63
2024/02/16 11:05:52;;;;;;;8.30;4.23;;;14.90;1.00;;;;;;5057086;28;20463;-63
2024/02/16 11:08:21;;;;;;;5.77;4.13;;;14.80;1.00;;;;;;5056638;28;20462;-63
2024/02/16 11:10:59;;;;;;;6.17;4.27;;;14.80;1.00;;;;;;5056774;28;20463;-63
2024/02/16 11:13:29;;;;;;;8.23;3.67;;;14.70;28.40;;;;;;5056822;28;20493;-63
2024/02/16 11:16:02;;;;;;;6.23;4.23;;;14.70;91.80;;;;;;5056563;28;20506;-63
2024/02/16 11:18:30;;;;;;;5.23;3.47;;;14.60;99.90;;;;;;5056612;28;20570;-63
2024/02/16 11:21:02;;;;;;;6.47;4.27;;;14.60;99.90;;;;;;5056461;28;20451;-63
2024/02/16 11:23:30;;;;;;;5.13;3.67;;;14.60;97.30;;;;;;5056187;28;20482;-63
2024/02/16 11:26:02;;;;;;;7.50;4.03;;;14.60;95.40;;;;;;5056557;28;20469;-63
2024/02/16 11:28:34;;;;;;;7.37;3.70;;;14.60;87.70;;;;;;5056802;28;20716;-63
2024/02/16 11:31:02;;;;;;;8.27;4.20;;;14.60;59.40;;;;;;5055687;28;20767;-65
2024/02/16 11:33:30;;;;;;;6.67;4.20;;;14.50;58.70;;;;;;5055635;28;20458;-63
2024/02/16 11:35:58;;;;;;;6.80;3.90;;;14.50;66.00;;;;;;5056018;28;20899;-60
2024/02/16 11:38:27;;;;;;;5.87;3.77;;;14.50;76.60;;;;;;5055574;28;20467;-60
2024/02/16 11:40:56;;;;;;;5.83;4.03;;;14.60;99.90;;;;;;5071844;28;20477;-62
2024/02/16 11:43:23;;;;;;;6.73;4.83;;;14.60;99.90;;;;;;5074952;28;20489;-61
2024/02/16 11:45:53;;;;;;;7.43;4.30;;;14.60;99.90;;;;;;5075397;28;20461;-61
2024/02/16 11:48:21;;;;;;;25.03;17.87;;;14.70;99.90;;;;;;5075406;28;20496;-60
2024/02/16 11:50:49;;;;;;;10.97;7.40;;;14.80;99.90;;;;;;5075003;28;20464;-61
2024/02/16 11:53:20;;;;;;;8.10;6.90;;;14.90;99.90;;;;;;5074383;28;20486;-61
2024/02/16 11:55:51;;;;;;;7.00;4.00;;;14.80;99.90;;;;;;5074202;28;20461;-61
2024/02/16 11:58:20;;;;;;;10.70;4.10;;;14.80;99.90;;;;;;5074851;28;20460;-61
2024/02/16 12:00:48;;;;;;;6.03;3.67;;;14.70;99.90;;;;;;5074616;28;20449;-61
2024/02/16 12:03:25;;;;;;;5.10;3.80;;;14.70;99.90;;;;;;5074690;28;20797;-61
2024/02/16 12:05:55;;;;;;;7.20;3.90;;;14.50;99.90;;;;;;5074756;28;20559;-61
2024/02/16 12:08:27;;;;;;;6.80;3.70;;;14.50;99.90;;;;;;5075305;28;20548;-61
2024/02/16 12:10:56;;;;;;;7.57;4.10;;;14.50;99.90;;;;;;5074765;28;20894;-62
2024/02/16 12:13:24;;;;;;;5.77;3.47;;;14.40;99.90;;;;;;5074731;28;20465;-61
2024/02/16 12:15:53;;;;;;;9.27;3.80;;;14.40;99.90;;;;;;5074833;28;20826;-61
2024/02/16 12:18:29;;;;;;;7.50;4.47;;;14.30;99.90;;;;;;5074888;28;20514;-61
2024/02/16 12:21:01;;;;;;;6.50;3.47;;;14.20;99.90;;;;;;5074164;28;20521;-61
2024/02/16 12:23:30;;;;;;;8.37;3.80;;;14.10;99.90;;;;;;5074109;28;20497;-61
2024/02/16 12:25:58;;;;;;;5.33;3.80;;;14.00;99.90;;;;;;5074478;28;20461;-60
2024/02/16 12:28:27;;;;;;;7.30;4.10;;;14.00;1.00;;;;;;5074782;28;20457;-63
2024/02/16 12:30:55;;;;;;;6.80;4.13;;;14.00;1.00;;;;;;5068194;28;20459;-62
2024/02/16 12:33:25;;;;;;;5.53;4.00;;;13.90;99.90;;;;;;5055275;28;20483;-62
2024/02/16 12:35:54;;;;;;;7.17;3.80;;;13.80;1.00;;;;;;5055561;28;20786;-63
2024/02/16 12:38:24;;;;;;;7.23;4.70;;;13.80;99.90;;;;;;5055863;28;20495;-62
2024/02/16 12:40:51;;;;;;;8.33;4.20;;;13.70;99.90;;;;;;5055288;28;20493;-63
2024/02/16 12:43:20;;;;;;;8.60;4.43;;;13.70;99.90;;;;;;5054999;28;20473;-62
2024/02/16 12:45:47;;;;;;;8.70;3.93;;;13.70;99.90;;;;;;5055165;28;20450;-62
2024/02/16 12:48:16;;;;;;;6.90;4.83;;;13.60;1.00;;;;;;5055667;28;20786;-63
2024/02/16 12:50:47;;;;;;;13.00;4.83;;;13.60;1.00;;;;;;5055067;28;20462;-63
2024/02/16 12:53:15;;;;;;;6.37;4.10;;;13.60;1.00;;;;;;5055505;28;20911;-64
2024/02/16 12:55:42;;;;;;;7.73;4.77;;;13.60;1.00;;;;;;5055607;28;20458;-65
2024/02/16 12:58:10;;;;;;;8.30;5.50;;;13.50;99.90;;;;;;5054508;28;20506;-69